sensor_id;sensor_type;location;lat;lon;timestamp;temperature;humidity
29353;DHT22;16344;50.364;8.944;2023-02-01T00:01:55;5.70;1.00
29353;DHT22;16344;50.364;8.944;2023-02-01T00:04:21;5.70;1.00
29353;DHT22;16344;50.364;8.944;2023-02-01T00:06:47;5.70;1.00
29353;DHT22;16344;50.364;8.944;2023-02-01T00:09:12;5.70;1.00
29353;DHT22;16344;50.364;8.944;2023-02-01T00:11:38;5.60;1.00
29353;DHT22;16344;50.364;8.944;2023-02-01T00:14:04;5.70;1.00
29353;DHT22;16344;50.364;8.944;2023-02-01T00:16:30;5.70;1.00
29353;DHT22;16344;50.364;8.944;2023-02-01T00:19:02;5.70;1.00
29353;DHT22;16344;50.364;8.944;2023-02-01T00:21:29;5.60;1.00
29353;DHT22;16344;50.364;8.944;2023-02-01T00:23:55;5.60;1.00
29353;DHT22;16344;50.364;8.944;2023-02-01T00:26:33;5.60;1.00
29353;DHT22;16344;50.364;8.944;2023-02-01T00:29:00;5.60;1.00
29353;DHT22;16344;50.364;8.944;2023-02-01T00:31:26;5.50;1.00
29353;DHT22;16344;50.364;8.944;2023-02-01T00:33:52;5.50;1.00
29353;DHT22;16344;50.364;8.944;2023-02-01T00:36:17;5.60;1.00
29353;DHT22;16344;50.364;8.944;2023-02-01T00:38:43;5.50;1.00
29353;DHT22;16344;50.364;8.944;2023-02-01T00:41:17;5.50;1.00
29353;DHT22;16344;50.364;8.944;2023-02-01T00:43:43;5.60;1.00
29353;DHT22;16344;50.364;8.944;2023-02-01T00:46:10;5.60;1.00
29353;DHT22;16344;50.364;8.944;2023-02-01T00:48:36;5.50;1.00
29353;DHT22;16344;50.364;8.944;2023-02-01T00:51:08;5.60;1.00
29353;DHT22;16344;50.364;8.944;2023-02-01T00:53:34;5.60;1.00
29353;DHT22;16344;50.364;8.944;2023-02-01T00:56:00;5.50;1.00
29353;DHT22;16344;50.364;8.944;2023-02-01T00:58:26;5.60;1.00
29353;DHT22;16344;50.364;8.944;2023-02-01T01:03:34;5.60;1.00
29353;DHT22;16344;50.364;8.944;2023-02-01T01:06:03;5.50;1.00
29353;DHT22;16344;50.364;8.944;2023-02-01T01:08:29;5.60;1.00
29353;DHT22;16344;50.364;8.944;2023-02-01T01:10:54;5.60;1.00
29353;DHT22;16344;50.364;8.944;2023-02-01T01:13:20;5.60;1.00
29353;DHT22;16344;50.364;8.944;2023-02-01T01:15:46;5.60;1.00
29353;DHT22;16344;50.364;8.944;2023-02-01T01:18:11;5.50;1.00
29353;DHT22;16344;50.364;8.944;2023-02-01T01:20:39;5.60;1.00
29353;DHT22;16344;50.364;8.944;2023-02-01T01:23:06;5.60;1.00
29353;DHT22;16344;50.364;8.944;2023-02-01T01:25:32;5.60;1.00
29353;DHT22;16344;50.364;8.944;2023-02-01T01:27:58;5.60;1.00
29353;DHT22;16344;50.364;8.944;2023-02-01T01:30:23;5.70;1.00
29353;DHT22;16344;50.364;8.944;2023-02-01T01:32:49;5.70;1.00
29353;DHT22;16344;50.364;8.944;2023-02-01T01:35:14;5.60;1.00
29353;DHT22;16344;50.364;8.944;2023-02-01T01:37:40;5.60;1.00
29353;DHT22;16344;50.364;8.944;2023-02-01T01:40:07;5.60;1.00
29353;DHT22;16344;50.364;8.944;2023-02-01T01:42:41;5.70;1.00
29353;DHT22;16344;50.364;8.944;2023-02-01T01:45:30;5.70;1.00
29353;DHT22;16344;50.364;8.944;2023-02-01T01:48:03;5.70;1.00
29353;DHT22;16344;50.364;8.944;2023-02-01T01:50:32;5.60;1.00
29353;DHT22;16344;50.364;8.944;2023-02-01T01:53:01;5.60;1.00
29353;DHT22;16344;50.364;8.944;2023-02-01T01:55:32;5.60;1.00
29353;DHT22;16344;50.364;8.944;2023-02-01T01:58:05;5.60;1.00
29353;DHT22;16344;50.364;8.944;2023-02-01T02:00:32;5.70;1.00
29353;DHT22;16344;50.364;8.944;2023-02-01T02:03:18;5.60;1.00
29353;DHT22;16344;50.364;8.944;2023-02-01T02:05:45;5.60;1.00
29353;DHT22;16344;50.364;8.944;2023-02-01T02:08:12;5.60;1.00
29353;DHT22;16344;50.364;8.944;2023-02-01T02:10:37;5.60;1.00
29353;DHT22;16344;50.364;8.944;2023-02-01T02:13:22;5.60;1.00
29353;DHT22;16344;50.364;8.944;2023-02-01T02:16:08;5.60;1.00
29353;DHT22;16344;50.364;8.944;2023-02-01T02:33:57;5.60;1.00
29353;DHT22;16344;50.364;8.944;2023-02-01T02:36:46;5.60;1.00
29353;DHT22;16344;50.364;8.944;2023-02-01T02:39:59;5.60;1.00
29353;DHT22;16344;50.364;8.944;2023-02-01T02:45:40;5.60;1.00
29353;DHT22;16344;50.364;8.944;2023-02-01T02:51:20;5.60;1.00
29353;DHT22;16344;50.364;8.944;2023-02-01T02:54:12;5.60;1.00
29353;DHT22;16344;50.364;8.944;2023-02-01T02:56:58;5.60;1.00
29353;DHT22;16344;50.364;8.944;2023-02-01T02:59:45;5.50;1.00
29353;DHT22;16344;50.364;8.944;2023-02-01T03:02:31;5.50;1.00
29353;DHT22;16344;50.364;8.944;2023-02-01T03:05:16;5.50;1.00
29353;DHT22;16344;50.364;8.944;2023-02-01T03:07:55;5.50;1.00
29353;DHT22;16344;50.364;8.944;2023-02-01T03:13:28;5.60;1.00
29353;DHT22;16344;50.364;8.944;2023-02-01T03:16:22;5.60;1.00
29353;DHT22;16344;50.364;8.944;2023-02-01T03:19:02;5.60;1.00
29353;DHT22;16344;50.364;8.944;2023-02-01T03:24:14;5.70;1.00
29353;DHT22;16344;50.364;8.944;2023-02-01T03:26:50;5.70;1.00
29353;DHT22;16344;50.364;8.944;2023-02-01T03:29:23;5.70;1.00
29353;DHT22;16344;50.364;8.944;2023-02-01T03:31:50;5.80;1.00
29353;DHT22;16344;50.364;8.944;2023-02-01T03:34:16;5.70;1.00
29353;DHT22;16344;50.364;8.944;2023-02-01T03:36:47;5.70;1.00
29353;DHT22;16344;50.364;8.944;2023-02-01T03:39:30;5.80;1.00
29353;DHT22;16344;50.364;8.944;2023-02-01T03:42:00;5.80;1.00
29353;DHT22;16344;50.364;8.944;2023-02-01T03:44:32;5.70;1.00
29353;DHT22;16344;50.364;8.944;2023-02-01T03:47:09;5.80;1.00
29353;DHT22;16344;50.364;8.944;2023-02-01T03:49:36;5.80;1.00
29353;DHT22;16344;50.364;8.944;2023-02-01T03:52:05;5.80;1.00
29353;DHT22;16344;50.364;8.944;2023-02-01T03:54:32;5.80;1.00
29353;DHT22;16344;50.364;8.944;2023-02-01T03:57:02;5.80;1.00
29353;DHT22;16344;50.364;8.944;2023-02-01T03:59:29;5.80;1.00
29353;DHT22;16344;50.364;8.944;2023-02-01T04:01:55;5.70;1.00
29353;DHT22;16344;50.364;8.944;2023-02-01T04:04:21;5.80;1.00
29353;DHT22;16344;50.364;8.944;2023-02-01T04:06:47;5.80;1.00
29353;DHT22;16344;50.364;8.944;2023-02-01T04:09:13;5.80;1.00
29353;DHT22;16344;50.364;8.944;2023-02-01T04:11:39;5.80;1.00
29353;DHT22;16344;50.364;8.944;2023-02-01T04:14:04;5.80;1.00
29353;DHT22;16344;50.364;8.944;2023-02-01T04:16:31;5.90;1.00
29353;DHT22;16344;50.364;8.944;2023-02-01T04:18:57;5.80;1.00
29353;DHT22;16344;50.364;8.944;2023-02-01T04:21:24;5.80;1.00
29353;DHT22;16344;50.364;8.944;2023-02-01T04:23:49;5.80;1.00
29353;DHT22;16344;50.364;8.944;2023-02-01T04:26:15;5.80;1.00
29353;DHT22;16344;50.364;8.944;2023-02-01T04:28:41;5.80;1.00
29353;DHT22;16344;50.364;8.944;2023-02-01T04:31:07;5.90;1.00
29353;DHT22;16344;50.364;8.944;2023-02-01T04:33:32;5.90;1.00
29353;DHT22;16344;50.364;8.944;2023-02-01T04:35:58;5.90;1.00
29353;DHT22;16344;50.364;8.944;2023-02-01T04:38:24;5.90;1.00
29353;DHT22;16344;50.364;8.944;2023-02-01T04:40:49;5.90;1.00
29353;DHT22;16344;50.364;8.944;2023-02-01T04:43:16;5.90;1.00
29353;DHT22;16344;50.364;8.944;2023-02-01T04:45:46;5.80;1.00
29353;DHT22;16344;50.364;8.944;2023-02-01T04:48:12;5.90;1.00
29353;DHT22;16344;50.364;8.944;2023-02-01T04:50:37;5.90;1.00
29353;DHT22;16344;50.364;8.944;2023-02-01T04:53:03;5.90;1.00
29353;DHT22;16344;50.364;8.944;2023-02-01T04:55:28;5.90;1.00
29353;DHT22;16344;50.364;8.944;2023-02-01T04:57:54;5.90;1.00
29353;DHT22;16344;50.364;8.944;2023-02-01T05:00:20;5.90;1.00
29353;DHT22;16344;50.364;8.944;2023-02-01T05:02:46;5.80;1.00
29353;DHT22;16344;50.364;8.944;2023-02-01T05:05:11;5.80;1.00
29353;DHT22;16344;50.364;8.944;2023-02-01T05:07:37;5.80;1.00
29353;DHT22;16344;50.364;8.944;2023-02-01T05:10:03;5.80;1.00
29353;DHT22;16344;50.364;8.944;2023-02-01T05:12:29;5.80;1.00
29353;DHT22;16344;50.364;8.944;2023-02-01T05:15:13;5.80;1.00
29353;DHT22;16344;50.364;8.944;2023-02-01T05:17:38;5.80;1.00
29353;DHT22;16344;50.364;8.944;2023-02-01T05:20:06;5.80;1.00
29353;DHT22;16344;50.364;8.944;2023-02-01T05:22:32;5.90;1.00
29353;DHT22;16344;50.364;8.944;2023-02-01T05:24:57;5.90;1.00
29353;DHT22;16344;50.364;8.944;2023-02-01T05:27:23;5.90;1.00
29353;DHT22;16344;50.364;8.944;2023-02-01T05:29:48;5.90;1.00
29353;DHT22;16344;50.364;8.944;2023-02-01T05:32:14;5.90;1.00
29353;DHT22;16344;50.364;8.944;2023-02-01T05:34:40;5.90;1.00
29353;DHT22;16344;50.364;8.944;2023-02-01T05:37:05;5.90;1.00
29353;DHT22;16344;50.364;8.944;2023-02-01T05:39:31;5.80;1.00
29353;DHT22;16344;50.364;8.944;2023-02-01T05:41:56;5.80;1.00
29353;DHT22;16344;50.364;8.944;2023-02-01T05:44:22;5.80;1.00
29353;DHT22;16344;50.364;8.944;2023-02-01T05:46:47;5.80;1.00
29353;DHT22;16344;50.364;8.944;2023-02-01T05:49:13;5.80;1.00
29353;DHT22;16344;50.364;8.944;2023-02-01T05:51:38;5.80;1.00
29353;DHT22;16344;50.364;8.944;2023-02-01T05:54:04;5.70;1.00
29353;DHT22;16344;50.364;8.944;2023-02-01T05:56:29;5.70;1.00
29353;DHT22;16344;50.364;8.944;2023-02-01T05:58:55;5.70;1.00
29353;DHT22;16344;50.364;8.944;2023-02-01T06:01:20;5.70;1.00
29353;DHT22;16344;50.364;8.944;2023-02-01T06:03:46;5.60;1.00
29353;DHT22;16344;50.364;8.944;2023-02-01T06:06:11;5.60;1.00
29353;DHT22;16344;50.364;8.944;2023-02-01T06:08:37;5.60;1.00
29353;DHT22;16344;50.364;8.944;2023-02-01T06:11:05;5.70;1.00
29353;DHT22;16344;50.364;8.944;2023-02-01T06:13:32;5.70;1.00
29353;DHT22;16344;50.364;8.944;2023-02-01T06:15:57;5.70;1.00
29353;DHT22;16344;50.364;8.944;2023-02-01T06:18:24;5.70;1.00
29353;DHT22;16344;50.364;8.944;2023-02-01T06:20:57;5.80;1.00
29353;DHT22;16344;50.364;8.944;2023-02-01T06:23:24;5.80;1.00
29353;DHT22;16344;50.364;8.944;2023-02-01T06:25:51;5.80;1.00
29353;DHT22;16344;50.364;8.944;2023-02-01T06:28:17;5.70;1.00
29353;DHT22;16344;50.364;8.944;2023-02-01T06:30:42;5.70;1.00
29353;DHT22;16344;50.364;8.944;2023-02-01T06:33:12;5.70;1.00
29353;DHT22;16344;50.364;8.944;2023-02-01T06:35:40;5.70;1.00
29353;DHT22;16344;50.364;8.944;2023-02-01T06:38:06;5.70;1.00
29353;DHT22;16344;50.364;8.944;2023-02-01T06:40:32;5.80;1.00
29353;DHT22;16344;50.364;8.944;2023-02-01T06:42:57;5.80;1.00
29353;DHT22;16344;50.364;8.944;2023-02-01T06:45:23;5.80;1.00
29353;DHT22;16344;50.364;8.944;2023-02-01T06:47:49;5.90;1.00
29353;DHT22;16344;50.364;8.944;2023-02-01T06:50:15;5.80;1.00
29353;DHT22;16344;50.364;8.944;2023-02-01T06:52:40;5.80;1.00
29353;DHT22;16344;50.364;8.944;2023-02-01T06:55:06;5.70;1.00
29353;DHT22;16344;50.364;8.944;2023-02-01T06:57:32;5.80;1.00
29353;DHT22;16344;50.364;8.944;2023-02-01T06:59:59;5.70;1.00
29353;DHT22;16344;50.364;8.944;2023-02-01T07:02:25;5.70;1.00
29353;DHT22;16344;50.364;8.944;2023-02-01T07:04:50;5.70;1.00
29353;DHT22;16344;50.364;8.944;2023-02-01T07:07:16;5.60;1.00
29353;DHT22;16344;50.364;8.944;2023-02-01T07:09:42;5.60;1.00
29353;DHT22;16344;50.364;8.944;2023-02-01T07:12:07;5.70;1.00
29353;DHT22;16344;50.364;8.944;2023-02-01T07:14:33;5.60;1.00
29353;DHT22;16344;50.364;8.944;2023-02-01T07:16:58;5.60;1.00
29353;DHT22;16344;50.364;8.944;2023-02-01T07:19:24;5.60;1.00
29353;DHT22;16344;50.364;8.944;2023-02-01T07:21:49;5.70;1.00
29353;DHT22;16344;50.364;8.944;2023-02-01T07:24:15;5.70;99.90
29353;DHT22;16344;50.364;8.944;2023-02-01T07:26:40;5.70;99.90
29353;DHT22;16344;50.364;8.944;2023-02-01T07:29:06;5.60;99.90
29353;DHT22;16344;50.364;8.944;2023-02-01T07:31:31;5.70;99.90
29353;DHT22;16344;50.364;8.944;2023-02-01T07:33:57;5.70;99.90
29353;DHT22;16344;50.364;8.944;2023-02-01T07:36:23;5.60;99.90
29353;DHT22;16344;50.364;8.944;2023-02-01T07:38:49;5.60;99.90
29353;DHT22;16344;50.364;8.944;2023-02-01T07:41:17;5.70;99.90
29353;DHT22;16344;50.364;8.944;2023-02-01T07:43:42;5.60;99.90
29353;DHT22;16344;50.364;8.944;2023-02-01T07:46:09;5.70;99.90
29353;DHT22;16344;50.364;8.944;2023-02-01T07:48:35;5.70;99.90
29353;DHT22;16344;50.364;8.944;2023-02-01T07:51:07;5.70;99.90
29353;DHT22;16344;50.364;8.944;2023-02-01T07:53:34;5.70;99.90
29353;DHT22;16344;50.364;8.944;2023-02-01T07:56:00;5.60;99.90
29353;DHT22;16344;50.364;8.944;2023-02-01T07:58:27;5.70;99.90
29353;DHT22;16344;50.364;8.944;2023-02-01T08:00:53;5.70;99.90
29353;DHT22;16344;50.364;8.944;2023-02-01T08:03:37;5.70;99.90
29353;DHT22;16344;50.364;8.944;2023-02-01T08:06:03;5.80;99.90
29353;DHT22;16344;50.364;8.944;2023-02-01T08:08:29;5.80;99.90
29353;DHT22;16344;50.364;8.944;2023-02-01T08:10:59;5.80;99.90
29353;DHT22;16344;50.364;8.944;2023-02-01T08:13:25;5.70;99.90
29353;DHT22;16344;50.364;8.944;2023-02-01T08:15:50;5.70;99.90
29353;DHT22;16344;50.364;8.944;2023-02-01T08:18:16;5.80;99.90
29353;DHT22;16344;50.364;8.944;2023-02-01T08:20:46;5.70;99.90
29353;DHT22;16344;50.364;8.944;2023-02-01T08:23:12;5.80;99.90
29353;DHT22;16344;50.364;8.944;2023-02-01T08:25:38;5.70;99.90
29353;DHT22;16344;50.364;8.944;2023-02-01T08:28:05;5.70;99.90
29353;DHT22;16344;50.364;8.944;2023-02-01T08:30:30;5.70;99.90
29353;DHT22;16344;50.364;8.944;2023-02-01T08:32:57;5.80;99.90
29353;DHT22;16344;50.364;8.944;2023-02-01T08:35:22;5.80;99.90
29353;DHT22;16344;50.364;8.944;2023-02-01T08:37:49;5.80;99.90
29353;DHT22;16344;50.364;8.944;2023-02-01T08:40:16;5.70;99.90
29353;DHT22;16344;50.364;8.944;2023-02-01T08:42:41;5.80;99.90
29353;DHT22;16344;50.364;8.944;2023-02-01T08:45:24;5.80;99.90
29353;DHT22;16344;50.364;8.944;2023-02-01T08:47:51;5.80;99.90
29353;DHT22;16344;50.364;8.944;2023-02-01T08:50:18;5.80;99.90
29353;DHT22;16344;50.364;8.944;2023-02-01T08:52:43;5.80;99.90
29353;DHT22;16344;50.364;8.944;2023-02-01T08:55:10;5.80;99.90
29353;DHT22;16344;50.364;8.944;2023-02-01T08:57:35;5.80;99.90
29353;DHT22;16344;50.364;8.944;2023-02-01T09:00:02;5.80;99.90
29353;DHT22;16344;50.364;8.944;2023-02-01T09:02:27;5.80;99.90
29353;DHT22;16344;50.364;8.944;2023-02-01T09:04:53;5.90;99.90
29353;DHT22;16344;50.364;8.944;2023-02-01T09:07:19;5.80;99.90
29353;DHT22;16344;50.364;8.944;2023-02-01T09:09:45;5.80;99.90
29353;DHT22;16344;50.364;8.944;2023-02-01T09:12:10;5.90;99.90
29353;DHT22;16344;50.364;8.944;2023-02-01T09:14:36;5.90;99.90
29353;DHT22;16344;50.364;8.944;2023-02-01T09:17:02;5.90;99.90
29353;DHT22;16344;50.364;8.944;2023-02-01T09:19:28;5.80;99.90
29353;DHT22;16344;50.364;8.944;2023-02-01T09:21:54;5.80;99.90
29353;DHT22;16344;50.364;8.944;2023-02-01T09:24:20;5.90;99.90
29353;DHT22;16344;50.364;8.944;2023-02-01T09:26:45;5.80;99.90
29353;DHT22;16344;50.364;8.944;2023-02-01T09:29:11;5.90;99.90
29353;DHT22;16344;50.364;8.944;2023-02-01T09:31:37;5.80;99.90
29353;DHT22;16344;50.364;8.944;2023-02-01T09:34:04;5.90;99.90
29353;DHT22;16344;50.364;8.944;2023-02-01T09:36:29;5.90;99.90
29353;DHT22;16344;50.364;8.944;2023-02-01T09:38:55;5.90;99.90
29353;DHT22;16344;50.364;8.944;2023-02-01T09:47:00;5.90;99.90
29353;DHT22;16344;50.364;8.944;2023-02-01T09:49:34;5.90;99.90
29353;DHT22;16344;50.364;8.944;2023-02-01T09:52:05;5.90;99.90
29353;DHT22;16344;50.364;8.944;2023-02-01T09:54:42;6.00;99.90
29353;DHT22;16344;50.364;8.944;2023-02-01T09:57:16;6.10;99.90
29353;DHT22;16344;50.364;8.944;2023-02-01T09:59:46;6.10;99.90
29353;DHT22;16344;50.364;8.944;2023-02-01T10:02:18;6.20;99.90
29353;DHT22;16344;50.364;8.944;2023-02-01T10:04:46;6.20;99.90
29353;DHT22;16344;50.364;8.944;2023-02-01T10:10:23;6.40;99.90
29353;DHT22;16344;50.364;8.944;2023-02-01T10:13:15;6.40;99.90
29353;DHT22;16344;50.364;8.944;2023-02-01T10:16:04;6.40;99.90
29353;DHT22;16344;50.364;8.944;2023-02-01T10:19:01;6.40;99.90
29353;DHT22;16344;50.364;8.944;2023-02-01T10:21:52;6.40;99.90
29353;DHT22;16344;50.364;8.944;2023-02-01T10:27:35;6.40;99.90
29353;DHT22;16344;50.364;8.944;2023-02-01T10:32:40;6.50;99.90
29353;DHT22;16344;50.364;8.944;2023-02-01T10:35:27;6.50;99.90
29353;DHT22;16344;50.364;8.944;2023-02-01T10:37:53;6.50;99.90
29353;DHT22;16344;50.364;8.944;2023-02-01T10:40:25;6.50;99.90
29353;DHT22;16344;50.364;8.944;2023-02-01T10:43:00;6.60;99.90
29353;DHT22;16344;50.364;8.944;2023-02-01T10:45:32;6.60;99.90
29353;DHT22;16344;50.364;8.944;2023-02-01T10:47:59;6.50;99.90
29353;DHT22;16344;50.364;8.944;2023-02-01T10:55:50;6.40;99.90
29353;DHT22;16344;50.364;8.944;2023-02-01T10:58:26;6.50;99.90
29353;DHT22;16344;50.364;8.944;2023-02-01T11:00:57;6.50;99.90
29353;DHT22;16344;50.364;8.944;2023-02-01T11:03:33;6.50;99.90
29353;DHT22;16344;50.364;8.944;2023-02-01T11:06:01;6.60;99.90
29353;DHT22;16344;50.364;8.944;2023-02-01T11:08:28;6.50;99.90
29353;DHT22;16344;50.364;8.944;2023-02-01T11:10:59;6.50;99.90
29353;DHT22;16344;50.364;8.944;2023-02-01T11:13:29;6.60;99.90
29353;DHT22;16344;50.364;8.944;2023-02-01T11:15:56;6.60;99.90
29353;DHT22;16344;50.364;8.944;2023-02-01T11:18:30;6.60;99.90
29353;DHT22;16344;50.364;8.944;2023-02-01T11:20:56;6.70;99.90
29353;DHT22;16344;50.364;8.944;2023-02-01T11:23:25;6.70;99.90
29353;DHT22;16344;50.364;8.944;2023-02-01T11:26:00;6.70;99.90
29353;DHT22;16344;50.364;8.944;2023-02-01T11:28:33;6.60;99.90
29353;DHT22;16344;50.364;8.944;2023-02-01T11:31:03;6.60;99.90
29353;DHT22;16344;50.364;8.944;2023-02-01T11:33:33;6.60;99.90
29353;DHT22;16344;50.364;8.944;2023-02-01T11:36:06;6.60;99.90
29353;DHT22;16344;50.364;8.944;2023-02-01T11:38:33;6.60;99.90
29353;DHT22;16344;50.364;8.944;2023-02-01T11:41:26;6.70;99.90
29353;DHT22;16344;50.364;8.944;2023-02-01T11:43:54;6.70;99.90
29353;DHT22;16344;50.364;8.944;2023-02-01T11:46:24;6.60;99.90
29353;DHT22;16344;50.364;8.944;2023-02-01T11:48:55;6.70;99.90
29353;DHT22;16344;50.364;8.944;2023-02-01T11:51:54;6.60;99.90
29353;DHT22;16344;50.364;8.944;2023-02-01T11:59:48;6.60;99.90
29353;DHT22;16344;50.364;8.944;2023-02-01T12:02:45;6.50;99.90
29353;DHT22;16344;50.364;8.944;2023-02-01T12:05:41;6.60;99.90
29353;DHT22;16344;50.364;8.944;2023-02-01T12:16:41;6.60;99.90
29353;DHT22;16344;50.364;8.944;2023-02-01T12:19:48;6.60;99.90
29353;DHT22;16344;50.364;8.944;2023-02-01T12:22:55;6.70;99.90
29353;DHT22;16344;50.364;8.944;2023-02-01T12:26:04;6.70;99.90
29353;DHT22;16344;50.364;8.944;2023-02-01T12:28:40;6.60;99.90
29353;DHT22;16344;50.364;8.944;2023-02-01T12:31:36;6.60;99.90
29353;DHT22;16344;50.364;8.944;2023-02-01T12:34:40;6.70;99.90
29353;DHT22;16344;50.364;8.944;2023-02-01T12:42:43;6.70;99.90
29353;DHT22;16344;50.364;8.944;2023-02-01T12:45:26;6.70;99.90
29353;DHT22;16344;50.364;8.944;2023-02-01T12:47:55;6.70;99.90
29353;DHT22;16344;50.364;8.944;2023-02-01T12:50:29;6.80;99.90
29353;DHT22;16344;50.364;8.944;2023-02-01T12:53:07;6.80;99.90
29353;DHT22;16344;50.364;8.944;2023-02-01T12:55:39;6.70;99.90
29353;DHT22;16344;50.364;8.944;2023-02-01T12:58:14;6.70;99.90
29353;DHT22;16344;50.364;8.944;2023-02-01T13:00:49;6.80;99.90
29353;DHT22;16344;50.364;8.944;2023-02-01T13:06:04;6.70;99.90
29353;DHT22;16344;50.364;8.944;2023-02-01T13:08:46;6.70;99.90
29353;DHT22;16344;50.364;8.944;2023-02-01T13:11:36;6.80;99.90
29353;DHT22;16344;50.364;8.944;2023-02-01T13:17:12;6.80;99.90
29353;DHT22;16344;50.364;8.944;2023-02-01T13:19:44;6.90;99.90
29353;DHT22;16344;50.364;8.944;2023-02-01T13:22:19;6.90;99.90
29353;DHT22;16344;50.364;8.944;2023-02-01T13:24:49;6.90;99.90
29353;DHT22;16344;50.364;8.944;2023-02-01T13:27:16;6.90;99.90
29353;DHT22;16344;50.364;8.944;2023-02-01T13:29:51;6.80;99.90
29353;DHT22;16344;50.364;8.944;2023-02-01T13:35:14;6.90;99.90
29353;DHT22;16344;50.364;8.944;2023-02-01T13:40:36;7.00;99.90
29353;DHT22;16344;50.364;8.944;2023-02-01T13:45:46;6.90;99.90
29353;DHT22;16344;50.364;8.944;2023-02-01T13:48:23;7.00;99.90
29353;DHT22;16344;50.364;8.944;2023-02-01T13:50:55;7.00;99.90
29353;DHT22;16344;50.364;8.944;2023-02-01T13:53:36;7.10;99.90
29353;DHT22;16344;50.364;8.944;2023-02-01T13:56:07;7.10;99.90
29353;DHT22;16344;50.364;8.944;2023-02-01T13:58:37;7.20;99.90
29353;DHT22;16344;50.364;8.944;2023-02-01T14:03:51;7.20;99.90
29353;DHT22;16344;50.364;8.944;2023-02-01T14:19:36;7.20;99.90
29353;DHT22;16344;50.364;8.944;2023-02-01T14:22:32;7.20;99.90
29353;DHT22;16344;50.364;8.944;2023-02-01T14:24:58;7.10;99.90
29353;DHT22;16344;50.364;8.944;2023-02-01T14:27:29;7.10;99.90
29353;DHT22;16344;50.364;8.944;2023-02-01T14:30:01;7.10;99.90
29353;DHT22;16344;50.364;8.944;2023-02-01T14:32:33;7.10;99.90
29353;DHT22;16344;50.364;8.944;2023-02-01T14:35:02;7.10;99.90
29353;DHT22;16344;50.364;8.944;2023-02-01T14:37:35;7.20;99.90
29353;DHT22;16344;50.364;8.944;2023-02-01T14:40:05;7.20;99.90
29353;DHT22;16344;50.364;8.944;2023-02-01T14:42:48;7.20;99.90
29353;DHT22;16344;50.364;8.944;2023-02-01T14:47:48;7.10;99.90
29353;DHT22;16344;50.364;8.944;2023-02-01T15:00:55;7.30;99.90
29353;DHT22;16344;50.364;8.944;2023-02-01T15:06:33;7.20;99.90
29353;DHT22;16344;50.364;8.944;2023-02-01T15:09:25;7.20;99.90
29353;DHT22;16344;50.364;8.944;2023-02-01T15:12:02;7.30;99.90
29353;DHT22;16344;50.364;8.944;2023-02-01T15:14:36;7.20;99.90
29353;DHT22;16344;50.364;8.944;2023-02-01T15:17:02;7.30;99.90
29353;DHT22;16344;50.364;8.944;2023-02-01T15:19:29;7.30;99.90
29353;DHT22;16344;50.364;8.944;2023-02-01T15:21:57;7.30;99.90
29353;DHT22;16344;50.364;8.944;2023-02-01T15:24:23;7.30;99.90
29353;DHT22;16344;50.364;8.944;2023-02-01T15:26:50;7.30;99.90
29353;DHT22;16344;50.364;8.944;2023-02-01T15:29:17;7.20;99.90
29353;DHT22;16344;50.364;8.944;2023-02-01T15:31:51;7.20;99.90
29353;DHT22;16344;50.364;8.944;2023-02-01T15:34:18;7.20;99.90
29353;DHT22;16344;50.364;8.944;2023-02-01T15:36:45;7.20;99.90
29353;DHT22;16344;50.364;8.944;2023-02-01T15:41:59;7.20;99.90
29353;DHT22;16344;50.364;8.944;2023-02-01T15:44:43;7.10;99.90
29353;DHT22;16344;50.364;8.944;2023-02-01T15:47:18;7.00;99.90
29353;DHT22;16344;50.364;8.944;2023-02-01T15:49:49;7.00;99.90
29353;DHT22;16344;50.364;8.944;2023-02-01T15:52:30;7.00;99.90
29353;DHT22;16344;50.364;8.944;2023-02-01T15:55:01;6.90;99.90
29353;DHT22;16344;50.364;8.944;2023-02-01T15:57:36;6.80;99.90
29353;DHT22;16344;50.364;8.944;2023-02-01T16:00:07;6.80;99.90
29353;DHT22;16344;50.364;8.944;2023-02-01T16:02:42;6.80;99.90
29353;DHT22;16344;50.364;8.944;2023-02-01T16:05:32;6.70;99.90
29353;DHT22;16344;50.364;8.944;2023-02-01T16:08:21;6.70;99.90
29353;DHT22;16344;50.364;8.944;2023-02-01T16:10:48;6.60;99.90
29353;DHT22;16344;50.364;8.944;2023-02-01T16:13:15;6.60;99.90
29353;DHT22;16344;50.364;8.944;2023-02-01T16:15:41;6.60;99.90
29353;DHT22;16344;50.364;8.944;2023-02-01T16:18:08;6.60;99.90
29353;DHT22;16344;50.364;8.944;2023-02-01T16:20:35;6.60;99.90
29353;DHT22;16344;50.364;8.944;2023-02-01T16:23:03;6.60;99.90
29353;DHT22;16344;50.364;8.944;2023-02-01T16:25:29;6.60;99.90
29353;DHT22;16344;50.364;8.944;2023-02-01T16:27:54;6.60;99.90
29353;DHT22;16344;50.364;8.944;2023-02-01T16:30:20;6.50;99.90
29353;DHT22;16344;50.364;8.944;2023-02-01T16:33:00;6.60;99.90
29353;DHT22;16344;50.364;8.944;2023-02-01T16:35:37;6.60;99.90
29353;DHT22;16344;50.364;8.944;2023-02-01T16:38:13;6.60;1.00
29353;DHT22;16344;50.364;8.944;2023-02-01T16:40:40;6.50;99.90
29353;DHT22;16344;50.364;8.944;2023-02-01T16:45:42;6.60;99.90
29353;DHT22;16344;50.364;8.944;2023-02-01T16:50:42;6.60;99.90
29353;DHT22;16344;50.364;8.944;2023-02-01T16:53:10;6.60;99.90
29353;DHT22;16344;50.364;8.944;2023-02-01T16:55:37;6.60;99.90
29353;DHT22;16344;50.364;8.944;2023-02-01T16:58:03;6.60;99.90
29353;DHT22;16344;50.364;8.944;2023-02-01T17:00:28;6.50;99.90
29353;DHT22;16344;50.364;8.944;2023-02-01T17:02:56;6.50;99.90
29353;DHT22;16344;50.364;8.944;2023-02-01T17:05:21;6.50;99.90
29353;DHT22;16344;50.364;8.944;2023-02-01T17:07:47;6.50;99.90
29353;DHT22;16344;50.364;8.944;2023-02-01T17:10:22;6.50;99.90
29353;DHT22;16344;50.364;8.944;2023-02-01T17:12:49;6.50;99.90
29353;DHT22;16344;50.364;8.944;2023-02-01T17:15:14;6.50;99.90
29353;DHT22;16344;50.364;8.944;2023-02-01T17:17:40;6.50;99.90
29353;DHT22;16344;50.364;8.944;2023-02-01T17:20:20;6.50;99.90
29353;DHT22;16344;50.364;8.944;2023-02-01T17:22:46;6.60;99.90
29353;DHT22;16344;50.364;8.944;2023-02-01T17:25:20;6.60;99.90
29353;DHT22;16344;50.364;8.944;2023-02-01T17:27:47;6.60;99.90
29353;DHT22;16344;50.364;8.944;2023-02-01T17:30:13;6.60;99.90
29353;DHT22;16344;50.364;8.944;2023-02-01T17:32:39;6.70;99.90
29353;DHT22;16344;50.364;8.944;2023-02-01T17:35:08;6.70;99.90
29353;DHT22;16344;50.364;8.944;2023-02-01T17:37:36;6.90;1.00
29353;DHT22;16344;50.364;8.944;2023-02-01T17:40:02;7.00;99.90
29353;DHT22;16344;50.364;8.944;2023-02-01T17:42:29;7.10;99.90
29353;DHT22;16344;50.364;8.944;2023-02-01T17:45:02;7.00;99.90
29353;DHT22;16344;50.364;8.944;2023-02-01T17:47:36;7.00;99.90
29353;DHT22;16344;50.364;8.944;2023-02-01T17:50:03;6.90;99.90
29353;DHT22;16344;50.364;8.944;2023-02-01T17:52:28;6.90;99.90
29353;DHT22;16344;50.364;8.944;2023-02-01T17:54:54;6.80;99.90
29353;DHT22;16344;50.364;8.944;2023-02-01T17:57:20;6.80;99.90
29353;DHT22;16344;50.364;8.944;2023-02-01T17:59:46;6.80;99.90
29353;DHT22;16344;50.364;8.944;2023-02-01T18:02:24;6.70;1.00
29353;DHT22;16344;50.364;8.944;2023-02-01T18:04:50;6.70;1.00
29353;DHT22;16344;50.364;8.944;2023-02-01T18:07:16;6.70;1.00
29353;DHT22;16344;50.364;8.944;2023-02-01T18:09:42;6.70;1.00
29353;DHT22;16344;50.364;8.944;2023-02-01T18:12:22;6.70;1.00
29353;DHT22;16344;50.364;8.944;2023-02-01T18:14:49;6.70;1.00
29353;DHT22;16344;50.364;8.944;2023-02-01T18:17:15;6.70;1.00